PWSweather.com
Personal Weather Stations
Station Observations
WOODBURYWX
Lighthouse Rd, Woodbury, Woodbury, CT 06798

Lighthouse Rd, WoodburyWoodbury, CT 06798

Lat: 41.553333, Lon: -73.224167

Elevation: 437

Station Type: Ambient Weather WS-1090

Latest ConditionsUpdated 12:34:00 AM EDT Saturday, Nov 1, 2014
Currently Today's Max Today's Min Today's Average
Temperature 44.1°F6.7°C 44.1°F6.7°C 43.3°F6.3°C 43.6°F6.4°C
Dew Point 41.3°F5.2°C 41.9°F5.5°C 41.2°F5.1°C 41.6°F5.3°C
Winds 2.6 mph NNW4.2 kmh NNW 3.2 mph N5.1 kmh N - 2.8 mph 4.5 kmh
Wind Gusts 5.6 mph9.0 kmh 5.6 mph9.0 kmh - -
Humidity 90% 94% 90% 93%
Pressure 29.91 in1012.9 mb 29.92 in1013.2 mb 29.91 in1012.9 mb -
Hour Temp Dew Point Humidity Winds Wind Gusts Pressure Precip Precip Rate Daily Precip Total
12:34 AM 44.1°F6.7°C 41.3°F5.2°C 90% 2.6 mph NNW4.2 kmh NNW 5.6 mph9.0 kmh 29.91 in1012.9 mb 0.00 in0.0 mm 0.00 in/hr0.0 mm/hr 0.00 in0.0 mm
12:33 AM 44.1°F6.7°C 41.3°F5.2°C 90% 2.7 mph NNW4.3 kmh NNW 5.6 mph9.0 kmh 29.91 in1012.9 mb 0.00 in0.0 mm 0.00 in/hr0.0 mm/hr 0.00 in0.0 mm
12:32 AM 43.9°F6.6°C 41.4°F5.2°C 91% 2.5 mph NNW4.0 kmh NNW 5.6 mph9.0 kmh 29.91 in1012.9 mb 0.00 in0.0 mm 0.00 in/hr0.0 mm/hr 0.00 in0.0 mm
12:31 AM 43.9°F6.6°C 41.4°F5.2°C 91% 2.5 mph N4.0 kmh N 4.8 mph7.7 kmh 29.91 in1012.9 mb 0.00 in0.0 mm 0.00 in/hr0.0 mm/hr 0.00 in0.0 mm
12:30 AM 43.9°F6.6°C 41.4°F5.2°C 91% 2.6 mph N4.2 kmh N 4.8 mph7.7 kmh 29.91 in1012.9 mb 0.00 in0.0 mm 0.00 in/hr0.0 mm/hr 0.00 in0.0 mm
12:29 AM 43.7°F6.5°C 41.2°F5.1°C 91% 2.8 mph N4.5 kmh N 4.8 mph7.7 kmh 29.91 in1012.9 mb 0.00 in0.0 mm 0.00 in/hr0.0 mm/hr 0.00 in0.0 mm
12:28 AM 43.9°F6.6°C 41.4°F5.2°C 91% 2.9 mph N4.7 kmh N 4.8 mph7.7 kmh 29.91 in1012.9 mb 0.00 in0.0 mm 0.00 in/hr0.0 mm/hr 0.00 in0.0 mm
12:27 AM 43.9°F6.6°C 41.4°F5.2°C 91% 2.9 mph N4.7 kmh N 4.8 mph7.7 kmh 29.91 in1012.9 mb 0.00 in0.0 mm 0.00 in/hr0.0 mm/hr 0.00 in0.0 mm
12:26 AM 44.1°F6.7°C 41.6°F5.3°C 91% 3.1 mph N5.0 kmh N 4.8 mph7.7 kmh 29.91 in1012.9 mb 0.00 in0.0 mm 0.00 in/hr0.0 mm/hr 0.00 in0.0 mm
12:25 AM 43.9°F6.6°C 41.7°F5.4°C 92% 3.2 mph N5.1 kmh N 4.8 mph7.7 kmh 29.91 in1012.9 mb 0.00 in0.0 mm 0.00 in/hr0.0 mm/hr 0.00 in0.0 mm
12:24 AM 43.9°F6.6°C 41.7°F5.4°C 92% 3.2 mph N5.1 kmh N 4.8 mph7.7 kmh 29.91 in1012.9 mb 0.00 in0.0 mm 0.00 in/hr0.0 mm/hr 0.00 in0.0 mm
12:23 AM 43.7°F6.5°C 41.5°F5.3°C 92% 3.1 mph N5.0 kmh N 4.8 mph7.7 kmh 29.91 in1012.9 mb 0.00 in0.0 mm 0.00 in/hr0.0 mm/hr 0.00 in0.0 mm
12:22 AM 43.7°F6.5°C 41.5°F5.3°C 92% 3.1 mph N5.0 kmh N 4.8 mph7.7 kmh 29.91 in1012.9 mb 0.00 in0.0 mm 0.00 in/hr0.0 mm/hr 0.00 in0.0 mm
12:21 AM 43.9°F6.6°C 41.7°F5.4°C 92% 2.8 mph N4.5 kmh N 4.0 mph6.4 kmh 29.91 in1012.9 mb 0.00 in0.0 mm 0.00 in/hr0.0 mm/hr 0.00 in0.0 mm
12:20 AM 43.7°F6.5°C 41.5°F5.3°C 92% 2.6 mph N4.2 kmh N 4.0 mph6.4 kmh 29.91 in1012.9 mb 0.00 in0.0 mm 0.00 in/hr0.0 mm/hr 0.00 in0.0 mm
12:19 AM 43.7°F6.5°C 41.8°F5.4°C 93% 2.6 mph NNW4.2 kmh NNW 4.0 mph6.4 kmh 29.91 in1012.9 mb 0.00 in0.0 mm 0.00 in/hr0.0 mm/hr 0.00 in0.0 mm
12:18 AM 43.7°F6.5°C 41.8°F5.4°C 93% 2.4 mph NNW3.9 kmh NNW 4.0 mph6.4 kmh 29.91 in1012.9 mb 0.00 in0.0 mm 0.00 in/hr0.0 mm/hr 0.00 in0.0 mm
12:17 AM 43.7°F6.5°C 41.8°F5.4°C 93% 2.2 mph NNW3.5 kmh NNW 3.2 mph5.1 kmh 29.91 in1012.9 mb 0.00 in0.0 mm 0.00 in/hr0.0 mm/hr 0.00 in0.0 mm
12:16 AM 43.7°F6.5°C 41.8°F5.4°C 93% 2.3 mph NNW3.7 kmh NNW 3.2 mph5.1 kmh 29.91 in1012.9 mb 0.00 in0.0 mm 0.00 in/hr0.0 mm/hr 0.00 in0.0 mm
12:15 AM 43.3°F6.3°C 41.5°F5.3°C 93% 2.3 mph NNW3.7 kmh NNW 3.2 mph5.1 kmh 29.91 in1012.9 mb 0.00 in0.0 mm 0.00 in/hr0.0 mm/hr 0.00 in0.0 mm
12:14 AM 43.5°F6.4°C 41.9°F5.5°C 94% 2.3 mph NNW3.7 kmh NNW 3.2 mph5.1 kmh 29.91 in1012.9 mb 0.00 in0.0 mm 0.00 in/hr0.0 mm/hr 0.00 in0.0 mm
12:13 AM 43.5°F6.4°C 41.9°F5.5°C 94% 2.4 mph N3.9 kmh N 3.2 mph5.1 kmh 29.91 in1012.9 mb 0.00 in0.0 mm 0.00 in/hr0.0 mm/hr 0.00 in0.0 mm
12:12 AM 43.5°F6.4°C 41.9°F5.5°C 94% 2.5 mph N4.0 kmh N 3.2 mph5.1 kmh 29.91 in1012.9 mb 0.00 in0.0 mm 0.00 in/hr0.0 mm/hr 0.00 in0.0 mm
12:11 AM 43.5°F6.4°C 41.9°F5.5°C 94% 2.6 mph N4.2 kmh N 3.2 mph5.1 kmh 29.92 in1013.2 mb 0.00 in0.0 mm 0.00 in/hr0.0 mm/hr 0.00 in0.0 mm
12:10 AM 43.3°F6.3°C 41.7°F5.4°C 94% 2.9 mph N4.7 kmh N 3.2 mph5.1 kmh 29.91 in1012.9 mb 0.00 in0.0 mm 0.00 in/hr0.0 mm/hr 0.00 in0.0 mm
12:09 AM 43.3°F6.3°C 41.7°F5.4°C 94% 3.0 mph N4.8 kmh N 3.2 mph5.1 kmh 29.91 in1012.9 mb 0.00 in0.0 mm 0.00 in/hr0.0 mm/hr 0.00 in0.0 mm
12:08 AM 43.5°F6.4°C 41.9°F5.5°C 94% 3.2 mph N5.1 kmh N 4.0 mph6.4 kmh 29.92 in1013.2 mb 0.00 in0.0 mm 0.00 in/hr0.0 mm/hr 0.00 in0.0 mm
12:07 AM 43.3°F6.3°C 41.7°F5.4°C 94% 3.1 mph N5.0 kmh N 4.0 mph6.4 kmh 29.92 in1013.2 mb 0.00 in0.0 mm 0.00 in/hr0.0 mm/hr 0.00 in0.0 mm
12:06 AM 43.3°F6.3°C 41.7°F5.4°C 94% 3.0 mph N4.8 kmh N 4.0 mph6.4 kmh 29.92 in1013.2 mb 0.00 in0.0 mm 0.00 in/hr0.0 mm/hr 0.00 in0.0 mm
12:05 AM 43.3°F6.3°C 41.7°F5.4°C 94% 2.9 mph N4.7 kmh N 4.0 mph6.4 kmh 29.92 in1013.2 mb 0.00 in0.0 mm 0.00 in/hr0.0 mm/hr 0.00 in0.0 mm
12:04 AM 43.3°F6.3°C 41.7°F5.4°C 94% 2.9 mph NNW4.7 kmh NNW 4.0 mph6.4 kmh 29.92 in1013.2 mb 0.00 in0.0 mm 0.00 in/hr0.0 mm/hr 0.00 in0.0 mm
12:03 AM 43.3°F6.3°C 41.7°F5.4°C 94% 2.9 mph NNW4.7 kmh NNW 4.0 mph6.4 kmh 29.92 in1013.2 mb 0.00 in0.0 mm 0.00 in/hr0.0 mm/hr 0.00 in0.0 mm
12:02 AM 43.3°F6.3°C 41.7°F5.4°C 94% 3.0 mph NNW4.8 kmh NNW 4.0 mph6.4 kmh 29.91 in1012.9 mb 0.00 in0.0 mm 0.00 in/hr0.0 mm/hr 0.00 in0.0 mm
12:01 AM 43.3°F6.3°C 41.7°F5.4°C 94% 3.1 mph NNW5.0 kmh NNW 4.0 mph6.4 kmh 29.92 in1013.2 mb 0.00 in0.0 mm 0.00 in/hr0.0 mm/hr 0.00 in0.0 mm
12:00 AM 43.3°F6.3°C 41.7°F5.4°C 94% 3.1 mph NNW5.0 kmh NNW 4.0 mph6.4 kmh 29.92 in1013.2 mb 0.00 in0.0 mm 0.00 in/hr0.0 mm/hr 0.00 in0.0 mm